createdAt,value
2022-11-08T00:01:29.921Z,51.44
2022-11-08T00:06:51.406Z,52.95
2022-11-08T00:12:12.937Z,54.01
2022-11-08T00:17:17.697Z,54.97
2022-11-08T00:22:21.092Z,56.17
2022-11-08T00:27:25.306Z,57.27
2022-11-08T00:32:28.702Z,58.24
2022-11-08T00:37:31.855Z,59.14
2022-11-08T00:42:34.773Z,59.78
2022-11-08T00:47:37.667Z,60.43
2022-11-08T00:52:40.576Z,61.06
2022-11-08T00:58:00.382Z,69.33
2022-11-08T01:03:18.922Z,62.12
2022-11-08T01:08:23.207Z,51.44
2022-11-08T01:13:26.261Z,51.60
2022-11-08T01:18:29.192Z,53.50
2022-11-08T01:23:34.176Z,54.44
2022-11-08T01:28:37.415Z,55.74
2022-11-08T01:33:40.522Z,56.92
2022-11-08T01:38:43.574Z,57.78
2022-11-08T01:43:55.616Z,58.65
2022-11-08T01:49:12.015Z,59.32
2022-11-08T01:54:21.302Z,60.05
2022-11-08T01:59:24.870Z,60.82
2022-11-08T02:04:30.550Z,61.48
2022-11-08T02:09:38.041Z,69.41
2022-11-08T02:14:40.987Z,62.85
2022-11-08T02:19:47.196Z,51.68
2022-11-08T02:24:50.189Z,51.07
2022-11-08T02:29:54.834Z,52.76
2022-11-08T02:35:02.997Z,54.07
2022-11-08T02:40:09.043Z,54.90
2022-11-08T02:45:12.072Z,55.87
2022-11-08T02:50:14.981Z,56.97
2022-11-08T02:55:17.911Z,57.91
2022-11-08T03:00:21.019Z,58.83
2022-11-08T03:05:25.346Z,59.66
2022-11-08T03:10:29.018Z,60.24
2022-11-08T03:15:32.931Z,60.82
2022-11-08T03:20:35.898Z,69.25
2022-11-08T03:25:38.795Z,61.80
2022-11-08T03:30:42.036Z,51.20
2022-11-08T03:35:44.918Z,50.92
2022-11-08T03:40:48.128Z,52.21
2022-11-08T03:45:51.000Z,53.53
2022-11-08T03:50:53.898Z,54.51
2022-11-08T03:55:59.938Z,55.82
2022-11-08T04:01:07.168Z,56.95
2022-11-08T04:06:10.678Z,58.00
2022-11-08T04:11:32.115Z,59.06
2022-11-08T04:16:35.167Z,59.71
2022-11-08T04:21:38.148Z,60.50
2022-11-08T04:26:41.338Z,61.04
2022-11-08T04:31:44.202Z,69.13
2022-11-08T04:36:47.137Z,63.30
2022-11-08T04:41:50.003Z,51.70
2022-11-08T04:46:53.040Z,51.48
2022-11-08T04:51:56.173Z,52.84
2022-11-08T04:56:59.099Z,53.94
2022-11-08T05:02:03.398Z,55.00
2022-11-08T05:07:06.672Z,56.32
2022-11-08T05:12:09.526Z,57.61
2022-11-08T05:17:12.531Z,58.69
2022-11-08T05:22:34.019Z,59.52
2022-11-08T05:27:36.952Z,60.24
2022-11-08T05:32:39.844Z,60.59
2022-11-08T05:37:42.718Z,61.12
2022-11-08T05:42:45.593Z,69.35
2022-11-08T05:47:48.554Z,63.58
2022-11-08T05:52:54.362Z,52.24
2022-11-08T05:57:57.404Z,51.44
2022-11-08T06:03:03.737Z,52.48
2022-11-08T06:08:06.673Z,54.38
2022-11-08T06:13:09.531Z,56.01
2022-11-08T06:18:12.437Z,57.27
2022-11-08T06:23:15.485Z,58.02
2022-11-08T06:28:19.004Z,59.00
2022-11-08T06:33:22.340Z,59.71
2022-11-08T06:38:25.847Z,60.52
2022-11-08T06:43:29.025Z,69.19
2022-11-08T06:48:35.873Z,62.54
2022-11-08T06:53:39.292Z,52.06
2022-11-08T06:58:42.574Z,51.55
2022-11-08T07:03:45.744Z,53.11
2022-11-08T07:08:49.058Z,54.35
2022-11-08T07:13:52.010Z,55.78
2022-11-08T07:18:55.840Z,57.25
2022-11-08T07:23:58.987Z,58.23
2022-11-08T07:29:02.288Z,59.37
2022-11-08T07:34:05.133Z,60.14
2022-11-08T07:39:08.061Z,68.34
2022-11-08T07:44:11.031Z,63.45
2022-11-08T07:49:14.027Z,53.38
2022-11-08T07:54:17.279Z,53.21
2022-11-08T07:59:20.132Z,54.51
2022-11-08T08:04:23.079Z,55.99
2022-11-08T08:09:26.072Z,57.11
2022-11-08T08:14:29.092Z,58.28
2022-11-08T08:19:32.153Z,59.49
2022-11-08T08:24:35.245Z,60.19
2022-11-08T08:29:38.204Z,60.65
2022-11-08T08:34:41.167Z,67.45
2022-11-08T08:39:44.303Z,60.29
2022-11-08T08:44:47.225Z,52.32
2022-11-08T08:49:50.263Z,53.17
2022-11-08T08:54:53.175Z,54.47
2022-11-08T09:05:19.294Z,56.35
2022-11-08T09:10:22.622Z,56.87
2022-11-08T09:15:25.577Z,57.03
2022-11-08T09:20:28.718Z,57.25
2022-11-08T09:25:31.922Z,57.49
2022-11-08T09:30:35.074Z,57.65
2022-11-08T09:35:38.289Z,57.76
2022-11-08T09:40:55.579Z,57.86
2022-11-08T09:45:59.147Z,58.11
2022-11-08T09:51:17.464Z,58.30
2022-11-08T09:56:28.447Z,58.99
2022-11-08T10:01:46.570Z,58.07
2022-11-08T10:07:07.824Z,58.10
2022-11-08T10:12:15.303Z,58.06
2022-11-08T10:17:36.351Z,57.76
2022-11-08T10:22:48.035Z,56.78
2022-11-08T10:27:54.877Z,56.76
2022-11-08T10:32:58.110Z,56.09
2022-11-08T10:38:03.436Z,55.63
2022-11-08T10:43:14.632Z,55.04
2022-11-08T10:48:17.928Z,54.45
2022-11-08T10:53:32.062Z,53.52
2022-11-08T10:58:40.890Z,53.13
2022-11-08T11:04:09.710Z,52.79
2022-11-08T11:09:24.291Z,52.57
2022-11-08T11:14:27.344Z,51.74
2022-11-08T11:19:30.772Z,50.75
2022-11-08T11:24:45.992Z,51.00
2022-11-08T11:29:48.914Z,50.98
2022-11-08T11:34:59.612Z,50.80
2022-11-08T11:40:30.136Z,51.12
2022-11-08T11:45:45.167Z,50.69
2022-11-08T11:50:50.107Z,50.67
2022-11-08T11:56:05.510Z,49.64
2022-11-08T12:01:33.146Z,49.06
2022-11-08T12:06:46.635Z,49.35
2022-11-08T12:11:55.065Z,48.69
2022-11-08T12:17:01.080Z,52.62
2022-11-08T12:22:25.747Z,53.57
2022-11-08T12:27:43.394Z,53.77
2022-11-08T12:33:14.678Z,53.34
2022-11-08T12:38:31.356Z,53.58
2022-11-08T12:44:01.456Z,53.29
2022-11-08T12:49:16.397Z,53.08
2022-11-08T12:54:21.617Z,52.85
2022-11-08T12:59:29.297Z,51.87
2022-11-08T13:04:51.111Z,52.41
2022-11-08T13:10:04.946Z,52.48
2022-11-08T13:15:25.117Z,52.42
2022-11-08T13:20:48.516Z,52.10
2022-11-08T13:25:53.044Z,51.83
2022-11-08T13:31:02.551Z,50.90
2022-11-08T13:36:47.248Z,48.93
2022-11-08T13:42:24.960Z,48.29
2022-11-08T13:47:33.584Z,48.36
2022-11-08T13:52:56.851Z,49.72
2022-11-08T13:54:01.032Z,49.31
2022-11-08T13:55:03.860Z,49.34
2022-11-08T13:56:06.607Z,49.50
2022-11-08T13:57:09.279Z,49.47
2022-11-08T13:59:20.055Z,49.63
2022-11-08T14:00:24.690Z,49.77
2022-11-08T14:01:51.001Z,50.01
2022-11-08T14:02:53.781Z,49.84
2022-11-08T14:03:56.506Z,50.01
2022-11-08T14:05:01.638Z,49.95
2022-11-08T14:06:06.653Z,50.18
2022-11-08T14:07:09.631Z,50.16
2022-11-08T14:17:12.280Z,49.91
2022-11-08T14:22:15.369Z,49.99
2022-11-08T14:27:18.065Z,50.54
2022-11-08T14:32:20.717Z,51.20
2022-11-08T14:37:23.415Z,51.66
2022-11-08T14:42:26.174Z,52.01
2022-11-08T14:47:30.347Z,52.27
2022-11-08T14:52:33.183Z,52.74
2022-11-08T14:57:36.349Z,53.15
2022-11-08T15:02:39.399Z,53.50
2022-11-08T15:07:42.151Z,53.84
2022-11-08T15:12:44.917Z,54.27
2022-11-08T15:17:47.623Z,54.61
2022-11-08T15:22:55.458Z,55.18
2022-11-08T15:27:59.300Z,55.65
2022-11-08T15:33:03.418Z,56.15
2022-11-08T15:38:06.100Z,56.40
2022-11-08T15:43:08.785Z,56.90
2022-11-08T15:48:11.707Z,57.11
2022-11-08T15:53:14.945Z,57.23
2022-11-08T15:58:17.838Z,57.53
2022-11-08T16:03:20.721Z,57.83
2022-11-08T16:08:25.694Z,58.15
2022-11-08T16:13:28.699Z,58.35
2022-11-08T16:18:34.277Z,58.58
2022-11-08T16:23:37.098Z,58.97
2022-11-08T16:28:40.031Z,58.90
2022-11-08T16:33:43.017Z,59.36
2022-11-08T16:38:45.709Z,59.72
2022-11-08T16:43:48.402Z,59.97
2022-11-08T16:48:51.099Z,60.20
2022-11-08T16:53:53.975Z,60.28
2022-11-08T16:58:56.827Z,60.57
2022-11-08T17:03:59.555Z,60.68
2022-11-08T17:09:02.368Z,60.98
2022-11-08T17:14:05.435Z,61.09
2022-11-08T17:19:08.539Z,61.13
2022-11-08T17:24:11.195Z,61.34
2022-11-08T17:29:13.966Z,61.54
2022-11-08T17:34:16.716Z,61.60
2022-11-08T17:39:19.421Z,61.67
2022-11-08T17:44:22.323Z,61.85
2022-11-08T17:49:24.971Z,62.10
2022-11-08T17:54:27.671Z,66.83
2022-11-08T17:59:30.403Z,62.54
2022-11-08T18:04:33.115Z,52.38
2022-11-08T18:09:35.816Z,52.36
2022-11-08T18:14:38.596Z,53.69
2022-11-08T18:19:41.336Z,54.78
2022-11-08T18:24:47.441Z,55.69
2022-11-08T18:29:52.697Z,56.51
2022-11-08T18:34:56.657Z,57.56
2022-11-08T18:39:59.390Z,58.49
2022-11-08T18:45:02.275Z,59.13
2022-11-08T18:50:05.626Z,59.94
2022-11-08T18:55:08.332Z,60.36
2022-11-08T19:00:11.013Z,60.90
2022-11-08T19:05:14.063Z,61.42
2022-11-08T19:10:25.886Z,68.50
2022-11-08T19:15:28.625Z,62.17
2022-11-08T19:20:31.322Z,52.76
2022-11-08T19:25:36.101Z,52.75
2022-11-08T19:30:39.133Z,54.29
2022-11-08T19:35:41.827Z,55.22
2022-11-08T19:40:47.355Z,56.27
2022-11-08T19:45:52.479Z,57.19
2022-11-08T19:50:55.814Z,57.88
2022-11-08T19:55:59.356Z,58.74
2022-11-08T20:01:02.866Z,59.29
2022-11-08T20:06:06.089Z,59.85
2022-11-08T20:11:09.448Z,60.31
2022-11-08T20:16:12.736Z,60.84
2022-11-08T20:21:15.840Z,61.54
2022-11-08T20:26:18.835Z,68.49
2022-11-08T20:31:23.018Z,61.85
2022-11-08T20:36:25.898Z,52.08
2022-11-08T20:41:30.070Z,52.19
2022-11-08T20:46:33.295Z,53.36
2022-11-08T20:51:36.125Z,54.73
2022-11-08T20:56:38.881Z,56.57
2022-11-08T21:01:41.888Z,56.67
2022-11-08T21:06:44.652Z,57.19
2022-11-08T21:11:47.633Z,58.04
2022-11-08T21:22:16.677Z,59.26
2022-11-08T21:27:19.473Z,61.28
2022-11-08T21:32:22.319Z,61.03
2022-11-08T21:37:25.008Z,61.10
2022-11-08T21:42:27.893Z,61.60
2022-11-08T21:47:30.664Z,68.53
2022-11-08T21:52:33.409Z,62.42
2022-11-08T21:57:36.137Z,52.02
2022-11-08T22:02:38.843Z,52.05
2022-11-08T22:07:41.626Z,53.27
2022-11-08T22:12:44.443Z,54.27
2022-11-08T22:18:14.456Z,55.58
2022-11-08T22:23:10.101Z,56.70
2022-11-08T22:28:12.869Z,57.82
2022-11-08T22:33:15.809Z,58.46
2022-11-08T22:38:19.059Z,59.17
2022-11-08T22:43:21.950Z,59.78
2022-11-08T22:48:24.762Z,60.40
2022-11-08T22:53:27.624Z,60.89
2022-11-08T22:58:30.414Z,61.24
2022-11-08T23:03:33.496Z,68.17
2022-11-08T23:08:36.320Z,63.48
2022-11-08T23:13:58.026Z,52.61
2022-11-08T23:19:19.307Z,51.66
2022-11-08T23:24:22.149Z,52.88
2022-11-08T23:29:43.246Z,54.35
2022-11-08T23:34:46.058Z,55.12
2022-11-08T23:40:07.151Z,56.49
2022-11-08T23:45:09.947Z,57.30
2022-11-08T23:50:12.652Z,58.46
2022-11-08T23:55:15.308Z,59.35
